sensor_id;sensor_type;location;lat;lon;timestamp;temperature;humidity
58951;DHT22;44730;53.158;6.398;2023-02-27T00:01:24;-0.30;99.90
58951;DHT22;44730;53.158;6.398;2023-02-27T00:03:50;-0.30;99.90
58951;DHT22;44730;53.158;6.398;2023-02-27T00:06:15;-0.40;99.90
58951;DHT22;44730;53.158;6.398;2023-02-27T00:08:43;-0.40;99.90
58951;DHT22;44730;53.158;6.398;2023-02-27T00:11:08;-0.40;99.90
58951;DHT22;44730;53.158;6.398;2023-02-27T00:13:35;-0.40;99.90
58951;DHT22;44730;53.158;6.398;2023-02-27T00:16:08;-0.40;99.90
58951;DHT22;44730;53.158;6.398;2023-02-27T00:18:34;-0.40;99.90
58951;DHT22;44730;53.158;6.398;2023-02-27T00:20:59;-0.40;99.90
58951;DHT22;44730;53.158;6.398;2023-02-27T00:23:25;-0.30;99.90
58951;DHT22;44730;53.158;6.398;2023-02-27T00:25:52;-0.40;99.90
58951;DHT22;44730;53.158;6.398;2023-02-27T00:28:19;-0.40;99.90
58951;DHT22;44730;53.158;6.398;2023-02-27T00:30:45;-0.40;99.90
58951;DHT22;44730;53.158;6.398;2023-02-27T00:33:10;-0.40;99.90
58951;DHT22;44730;53.158;6.398;2023-02-27T00:35:36;-0.20;99.90
58951;DHT22;44730;53.158;6.398;2023-02-27T00:38:04;-0.40;99.90
58951;DHT22;44730;53.158;6.398;2023-02-27T00:40:30;-0.40;99.90
58951;DHT22;44730;53.158;6.398;2023-02-27T00:42:56;-0.40;99.90
58951;DHT22;44730;53.158;6.398;2023-02-27T00:45:22;-0.30;99.90
58951;DHT22;44730;53.158;6.398;2023-02-27T00:47:50;0.00;99.90
58951;DHT22;44730;53.158;6.398;2023-02-27T00:50:15;-0.30;99.90
58951;DHT22;44730;53.158;6.398;2023-02-27T00:52:43;-0.30;99.90
58951;DHT22;44730;53.158;6.398;2023-02-27T00:55:09;-0.40;99.90
58951;DHT22;44730;53.158;6.398;2023-02-27T00:57:35;-0.40;99.90
58951;DHT22;44730;53.158;6.398;2023-02-27T01:00:01;0.10;99.90
58951;DHT22;44730;53.158;6.398;2023-02-27T01:02:27;-0.40;99.90
58951;DHT22;44730;53.158;6.398;2023-02-27T01:04:52;-0.40;99.90
58951;DHT22;44730;53.158;6.398;2023-02-27T01:07:18;-0.40;99.90
58951;DHT22;44730;53.158;6.398;2023-02-27T01:09:44;-0.50;99.90
58951;DHT22;44730;53.158;6.398;2023-02-27T01:12:10;-0.50;99.90
58951;DHT22;44730;53.158;6.398;2023-02-27T01:14:36;-0.60;99.90
58951;DHT22;44730;53.158;6.398;2023-02-27T01:17:02;-0.70;99.90
58951;DHT22;44730;53.158;6.398;2023-02-27T01:19:28;-0.80;99.90
58951;DHT22;44730;53.158;6.398;2023-02-27T01:21:53;-0.80;99.90
58951;DHT22;44730;53.158;6.398;2023-02-27T01:24:19;-0.90;99.90
58951;DHT22;44730;53.158;6.398;2023-02-27T01:26:47;-1.00;99.90
58951;DHT22;44730;53.158;6.398;2023-02-27T01:29:13;-0.80;99.90
58951;DHT22;44730;53.158;6.398;2023-02-27T01:31:40;-1.00;99.90
58951;DHT22;44730;53.158;6.398;2023-02-27T01:34:06;-1.00;99.90
58951;DHT22;44730;53.158;6.398;2023-02-27T01:36:32;-1.10;99.90
58951;DHT22;44730;53.158;6.398;2023-02-27T01:38:58;-1.10;99.90
58951;DHT22;44730;53.158;6.398;2023-02-27T01:41:23;-1.10;99.90
58951;DHT22;44730;53.158;6.398;2023-02-27T01:46:18;-1.10;99.90
58951;DHT22;44730;53.158;6.398;2023-02-27T01:48:44;-1.10;99.90
58951;DHT22;44730;53.158;6.398;2023-02-27T01:51:15;-1.10;99.90
58951;DHT22;44730;53.158;6.398;2023-02-27T01:53:45;-1.10;99.90
58951;DHT22;44730;53.158;6.398;2023-02-27T01:56:23;-1.00;99.90
58951;DHT22;44730;53.158;6.398;2023-02-27T01:58:51;-1.10;99.90
58951;DHT22;44730;53.158;6.398;2023-02-27T02:01:18;-1.10;99.90
58951;DHT22;44730;53.158;6.398;2023-02-27T02:03:49;-1.10;99.90
58951;DHT22;44730;53.158;6.398;2023-02-27T02:06:17;-1.10;99.90
58951;DHT22;44730;53.158;6.398;2023-02-27T02:08:47;-1.00;99.90
58951;DHT22;44730;53.158;6.398;2023-02-27T02:11:15;-1.00;99.90
58951;DHT22;44730;53.158;6.398;2023-02-27T02:13:43;-1.00;99.90
58951;DHT22;44730;53.158;6.398;2023-02-27T02:44:22;-0.80;99.90
58951;DHT22;44730;53.158;6.398;2023-02-27T02:47:11;-0.80;99.90
58951;DHT22;44730;53.158;6.398;2023-02-27T02:49:55;-0.80;99.90
58951;DHT22;44730;53.158;6.398;2023-02-27T02:52:38;-0.80;99.90
58951;DHT22;44730;53.158;6.398;2023-02-27T02:55:11;-0.80;99.90
58951;DHT22;44730;53.158;6.398;2023-02-27T02:58:24;-0.80;99.90
58951;DHT22;44730;53.158;6.398;2023-02-27T03:00:33;-0.80;99.90
58951;DHT22;44730;53.158;6.398;2023-02-27T03:03:14;-0.80;99.90
58951;DHT22;44730;53.158;6.398;2023-02-27T03:05:54;-0.80;99.90
58951;DHT22;44730;53.158;6.398;2023-02-27T03:08:27;-0.80;99.90
58951;DHT22;44730;53.158;6.398;2023-02-27T03:11:01;-0.80;99.90
58951;DHT22;44730;53.158;6.398;2023-02-27T03:13:47;-0.70;99.90
58951;DHT22;44730;53.158;6.398;2023-02-27T03:24:21;-0.60;99.90
58951;DHT22;44730;53.158;6.398;2023-02-27T03:26:48;-0.60;99.90
58951;DHT22;44730;53.158;6.398;2023-02-27T03:29:19;-0.60;99.90
58951;DHT22;44730;53.158;6.398;2023-02-27T03:31:57;-0.60;99.90
58951;DHT22;44730;53.158;6.398;2023-02-27T03:34:36;-0.60;99.90
58951;DHT22;44730;53.158;6.398;2023-02-27T03:43:07;-0.70;99.90
58951;DHT22;44730;53.158;6.398;2023-02-27T03:45:42;-0.70;99.90
58951;DHT22;44730;53.158;6.398;2023-02-27T03:48:11;-0.80;99.90
58951;DHT22;44730;53.158;6.398;2023-02-27T03:50:36;-0.70;99.90
58951;DHT22;44730;53.158;6.398;2023-02-27T03:53:05;-0.70;99.90
58951;DHT22;44730;53.158;6.398;2023-02-27T03:55:38;-0.70;99.90
58951;DHT22;44730;53.158;6.398;2023-02-27T03:58:04;-0.70;99.90
58951;DHT22;44730;53.158;6.398;2023-02-27T04:00:31;-0.70;99.90
58951;DHT22;44730;53.158;6.398;2023-02-27T04:02:58;-0.30;99.90
58951;DHT22;44730;53.158;6.398;2023-02-27T04:05:25;-0.70;99.90
58951;DHT22;44730;53.158;6.398;2023-02-27T04:14:47;-0.70;99.90
58951;DHT22;44730;53.158;6.398;2023-02-27T04:17:24;-0.80;99.90
58951;DHT22;44730;53.158;6.398;2023-02-27T04:20:11;-0.90;99.90
58951;DHT22;44730;53.158;6.398;2023-02-27T04:22:51;-1.00;99.90
58951;DHT22;44730;53.158;6.398;2023-02-27T04:25:30;-1.10;99.90
58951;DHT22;44730;53.158;6.398;2023-02-27T04:28:12;-1.10;99.90
58951;DHT22;44730;53.158;6.398;2023-02-27T04:33:44;-1.10;99.90
58951;DHT22;44730;53.158;6.398;2023-02-27T04:44:24;-1.50;99.90
58951;DHT22;44730;53.158;6.398;2023-02-27T04:46:52;-1.50;99.90
58951;DHT22;44730;53.158;6.398;2023-02-27T04:52:30;-1.60;99.90
58951;DHT22;44730;53.158;6.398;2023-02-27T04:55:05;-1.60;99.90
58951;DHT22;44730;53.158;6.398;2023-02-27T04:57:47;-1.70;99.90
58951;DHT22;44730;53.158;6.398;2023-02-27T05:00:15;-1.80;99.90
58951;DHT22;44730;53.158;6.398;2023-02-27T05:02:48;-1.80;99.90
58951;DHT22;44730;53.158;6.398;2023-02-27T05:05:22;-1.90;99.90
58951;DHT22;44730;53.158;6.398;2023-02-27T05:07:58;-1.30;99.90
58951;DHT22;44730;53.158;6.398;2023-02-27T05:11:30;-1.90;99.90
58951;DHT22;44730;53.158;6.398;2023-02-27T05:13:34;-1.90;99.90
58951;DHT22;44730;53.158;6.398;2023-02-27T05:16:22;-2.00;99.90
58951;DHT22;44730;53.158;6.398;2023-02-27T05:18:51;-2.00;99.90
58951;DHT22;44730;53.158;6.398;2023-02-27T05:24:11;-2.10;99.90
58951;DHT22;44730;53.158;6.398;2023-02-27T05:30:34;-2.10;99.90
58951;DHT22;44730;53.158;6.398;2023-02-27T05:33:53;-2.20;99.90
58951;DHT22;44730;53.158;6.398;2023-02-27T05:36:31;-2.10;99.90
58951;DHT22;44730;53.158;6.398;2023-02-27T05:39:03;-2.20;99.90
58951;DHT22;44730;53.158;6.398;2023-02-27T05:41:49;-2.20;99.90
58951;DHT22;44730;53.158;6.398;2023-02-27T05:44:19;-2.20;99.90
58951;DHT22;44730;53.158;6.398;2023-02-27T05:46:51;-2.20;99.90
58951;DHT22;44730;53.158;6.398;2023-02-27T05:49:25;-2.30;99.90
58951;DHT22;44730;53.158;6.398;2023-02-27T05:51:54;-2.30;99.90
58951;DHT22;44730;53.158;6.398;2023-02-27T05:57:28;-2.30;99.90
58951;DHT22;44730;53.158;6.398;2023-02-27T06:02:30;-2.30;99.90
58951;DHT22;44730;53.158;6.398;2023-02-27T06:04:56;-2.40;99.90
58951;DHT22;44730;53.158;6.398;2023-02-27T06:07:22;-2.40;99.90
58951;DHT22;44730;53.158;6.398;2023-02-27T06:09:48;-2.40;99.90
58951;DHT22;44730;53.158;6.398;2023-02-27T06:12:14;-2.40;99.90
58951;DHT22;44730;53.158;6.398;2023-02-27T06:14:40;-2.40;99.90
58951;DHT22;44730;53.158;6.398;2023-02-27T06:17:06;-2.40;99.90
58951;DHT22;44730;53.158;6.398;2023-02-27T06:19:32;-2.40;99.90
58951;DHT22;44730;53.158;6.398;2023-02-27T06:21:57;-2.50;99.90
58951;DHT22;44730;53.158;6.398;2023-02-27T06:24:24;-2.40;99.90
58951;DHT22;44730;53.158;6.398;2023-02-27T06:26:51;-2.40;99.90
58951;DHT22;44730;53.158;6.398;2023-02-27T06:29:17;-2.40;99.90
58951;DHT22;44730;53.158;6.398;2023-02-27T06:31:43;-2.50;99.90
58951;DHT22;44730;53.158;6.398;2023-02-27T06:34:09;-2.40;99.90
58951;DHT22;44730;53.158;6.398;2023-02-27T06:36:37;-2.50;99.90
58951;DHT22;44730;53.158;6.398;2023-02-27T06:39:02;-2.40;99.90
58951;DHT22;44730;53.158;6.398;2023-02-27T06:41:29;-2.40;99.90
58951;DHT22;44730;53.158;6.398;2023-02-27T06:43:55;-2.40;99.90
58951;DHT22;44730;53.158;6.398;2023-02-27T06:46:21;-2.40;99.90
58951;DHT22;44730;53.158;6.398;2023-02-27T06:48:46;-2.40;99.90
58951;DHT22;44730;53.158;6.398;2023-02-27T06:51:12;-2.40;99.90
58951;DHT22;44730;53.158;6.398;2023-02-27T06:53:38;-2.40;99.90
58951;DHT22;44730;53.158;6.398;2023-02-27T06:56:04;-2.40;99.90
58951;DHT22;44730;53.158;6.398;2023-02-27T06:58:30;-2.30;99.90
58951;DHT22;44730;53.158;6.398;2023-02-27T07:00:58;-2.30;99.90
58951;DHT22;44730;53.158;6.398;2023-02-27T07:03:24;-2.20;99.90
58951;DHT22;44730;53.158;6.398;2023-02-27T07:05:51;-2.00;99.90
58951;DHT22;44730;53.158;6.398;2023-02-27T07:08:17;-2.00;99.90
58951;DHT22;44730;53.158;6.398;2023-02-27T07:10:44;-1.90;99.90
58951;DHT22;44730;53.158;6.398;2023-02-27T07:13:16;-1.80;99.90
58951;DHT22;44730;53.158;6.398;2023-02-27T07:15:44;-1.70;99.90
58951;DHT22;44730;53.158;6.398;2023-02-27T07:18:10;-1.50;99.90
58951;DHT22;44730;53.158;6.398;2023-02-27T07:20:36;-1.50;99.90
58951;DHT22;44730;53.158;6.398;2023-02-27T07:23:02;-1.40;99.90
58951;DHT22;44730;53.158;6.398;2023-02-27T07:25:28;-1.30;99.90
58951;DHT22;44730;53.158;6.398;2023-02-27T07:27:55;-1.20;99.90
58951;DHT22;44730;53.158;6.398;2023-02-27T07:30:20;-1.10;99.90
58951;DHT22;44730;53.158;6.398;2023-02-27T07:32:46;-0.90;99.90
58951;DHT22;44730;53.158;6.398;2023-02-27T07:35:12;-0.80;99.90
58951;DHT22;44730;53.158;6.398;2023-02-27T07:37:38;-0.70;99.90
58951;DHT22;44730;53.158;6.398;2023-02-27T07:40:06;-0.60;99.90
58951;DHT22;44730;53.158;6.398;2023-02-27T07:42:47;-0.50;99.90
58951;DHT22;44730;53.158;6.398;2023-02-27T07:45:13;-0.40;99.90
58951;DHT22;44730;53.158;6.398;2023-02-27T07:47:39;-0.30;99.90
58951;DHT22;44730;53.158;6.398;2023-02-27T07:50:05;-0.30;99.90
58951;DHT22;44730;53.158;6.398;2023-02-27T07:52:31;-0.10;99.90
58951;DHT22;44730;53.158;6.398;2023-02-27T07:54:57;0.00;99.90
58951;DHT22;44730;53.158;6.398;2023-02-27T07:57:23;0.10;99.90
58951;DHT22;44730;53.158;6.398;2023-02-27T07:59:48;0.10;99.90
58951;DHT22;44730;53.158;6.398;2023-02-27T08:02:14;0.20;99.90
58951;DHT22;44730;53.158;6.398;2023-02-27T08:04:40;0.30;99.90
58951;DHT22;44730;53.158;6.398;2023-02-27T08:07:05;0.50;99.90
58951;DHT22;44730;53.158;6.398;2023-02-27T08:09:31;0.70;99.90
58951;DHT22;44730;53.158;6.398;2023-02-27T08:11:58;1.30;99.90
58951;DHT22;44730;53.158;6.398;2023-02-27T08:14:23;1.90;99.90
58951;DHT22;44730;53.158;6.398;2023-02-27T08:16:49;2.10;99.90
58951;DHT22;44730;53.158;6.398;2023-02-27T08:19:15;2.20;99.90
58951;DHT22;44730;53.158;6.398;2023-02-27T08:21:47;2.30;99.90
58951;DHT22;44730;53.158;6.398;2023-02-27T08:24:13;2.70;99.90
58951;DHT22;44730;53.158;6.398;2023-02-27T08:26:39;2.90;99.90
58951;DHT22;44730;53.158;6.398;2023-02-27T08:29:04;3.10;99.90
58951;DHT22;44730;53.158;6.398;2023-02-27T08:31:31;3.10;99.90
58951;DHT22;44730;53.158;6.398;2023-02-27T08:33:57;3.00;99.90
58951;DHT22;44730;53.158;6.398;2023-02-27T08:36:23;3.00;99.90
58951;DHT22;44730;53.158;6.398;2023-02-27T08:38:48;2.90;99.90
58951;DHT22;44730;53.158;6.398;2023-02-27T08:41:14;3.40;99.90
58951;DHT22;44730;53.158;6.398;2023-02-27T08:43:40;2.90;99.90
58951;DHT22;44730;53.158;6.398;2023-02-27T08:46:05;3.00;99.90
58951;DHT22;44730;53.158;6.398;2023-02-27T08:48:31;3.50;99.90
58951;DHT22;44730;53.158;6.398;2023-02-27T08:50:57;3.30;99.90
58951;DHT22;44730;53.158;6.398;2023-02-27T08:53:22;3.40;99.90
58951;DHT22;44730;53.158;6.398;2023-02-27T08:55:49;3.90;99.90
58951;DHT22;44730;53.158;6.398;2023-02-27T08:58:16;3.70;99.90
58951;DHT22;44730;53.158;6.398;2023-02-27T09:00:42;3.90;99.90
58951;DHT22;44730;53.158;6.398;2023-02-27T09:03:08;4.20;99.90
58951;DHT22;44730;53.158;6.398;2023-02-27T09:05:34;4.20;99.90
58951;DHT22;44730;53.158;6.398;2023-02-27T09:08:03;4.30;99.90
58951;DHT22;44730;53.158;6.398;2023-02-27T09:10:30;4.40;99.90
58951;DHT22;44730;53.158;6.398;2023-02-27T09:12:58;4.60;99.90
58951;DHT22;44730;53.158;6.398;2023-02-27T09:15:24;4.70;99.90
58951;DHT22;44730;53.158;6.398;2023-02-27T09:17:50;4.90;99.90
58951;DHT22;44730;53.158;6.398;2023-02-27T09:20:16;5.10;99.90
58951;DHT22;44730;53.158;6.398;2023-02-27T09:22:42;5.20;99.90
58951;DHT22;44730;53.158;6.398;2023-02-27T09:25:08;5.30;99.90
58951;DHT22;44730;53.158;6.398;2023-02-27T09:27:34;5.40;99.90
58951;DHT22;44730;53.158;6.398;2023-02-27T09:30:00;5.50;99.90
58951;DHT22;44730;53.158;6.398;2023-02-27T09:32:26;5.60;99.90
58951;DHT22;44730;53.158;6.398;2023-02-27T09:34:52;5.80;99.90
58951;DHT22;44730;53.158;6.398;2023-02-27T09:37:18;5.90;99.90
58951;DHT22;44730;53.158;6.398;2023-02-27T09:39:45;6.20;99.90
58951;DHT22;44730;53.158;6.398;2023-02-27T09:42:18;6.10;99.90
58951;DHT22;44730;53.158;6.398;2023-02-27T09:45:02;6.20;99.90
58951;DHT22;44730;53.158;6.398;2023-02-27T09:47:34;6.30;99.90
58951;DHT22;44730;53.158;6.398;2023-02-27T09:50:09;6.30;99.90
58951;DHT22;44730;53.158;6.398;2023-02-27T09:52:43;6.40;99.90
58951;DHT22;44730;53.158;6.398;2023-02-27T09:55:18;6.70;99.90
58951;DHT22;44730;53.158;6.398;2023-02-27T09:58:01;6.90;99.90
58951;DHT22;44730;53.158;6.398;2023-02-27T10:00:50;7.30;99.90
58951;DHT22;44730;53.158;6.398;2023-02-27T10:06:26;7.80;99.90
58951;DHT22;44730;53.158;6.398;2023-02-27T10:11:31;8.60;99.90
58951;DHT22;44730;53.158;6.398;2023-02-27T10:16:58;9.20;99.90
58951;DHT22;44730;53.158;6.398;2023-02-27T10:19:29;9.30;99.90
58951;DHT22;44730;53.158;6.398;2023-02-27T10:34:13;9.20;99.90
58951;DHT22;44730;53.158;6.398;2023-02-27T10:36:42;8.70;99.90
58951;DHT22;44730;53.158;6.398;2023-02-27T10:39:14;8.40;99.90
58951;DHT22;44730;53.158;6.398;2023-02-27T10:41:42;8.20;99.90
58951;DHT22;44730;53.158;6.398;2023-02-27T10:44:12;8.10;99.90
58951;DHT22;44730;53.158;6.398;2023-02-27T10:46:39;7.90;99.90
58951;DHT22;44730;53.158;6.398;2023-02-27T10:49:19;7.80;99.90
58951;DHT22;44730;53.158;6.398;2023-02-27T10:52:03;7.70;99.90
58951;DHT22;44730;53.158;6.398;2023-02-27T10:54:29;7.50;99.90
58951;DHT22;44730;53.158;6.398;2023-02-27T10:56:58;7.40;99.90
58951;DHT22;44730;53.158;6.398;2023-02-27T10:59:32;7.30;99.90
58951;DHT22;44730;53.158;6.398;2023-02-27T11:02:02;7.20;99.90
58951;DHT22;44730;53.158;6.398;2023-02-27T11:04:40;7.30;99.90
58951;DHT22;44730;53.158;6.398;2023-02-27T11:07:13;7.20;99.90
58951;DHT22;44730;53.158;6.398;2023-02-27T11:09:41;7.20;99.90
58951;DHT22;44730;53.158;6.398;2023-02-27T11:12:55;7.20;99.90
58951;DHT22;44730;53.158;6.398;2023-02-27T11:15:24;7.20;99.90
58951;DHT22;44730;53.158;6.398;2023-02-27T11:17:50;7.10;99.90
58951;DHT22;44730;53.158;6.398;2023-02-27T11:20:31;7.10;99.90
58951;DHT22;44730;53.158;6.398;2023-02-27T11:23:14;7.00;99.90
58951;DHT22;44730;53.158;6.398;2023-02-27T11:25:42;6.90;99.90
58951;DHT22;44730;53.158;6.398;2023-02-27T11:28:46;7.00;99.90
58951;DHT22;44730;53.158;6.398;2023-02-27T11:31:13;7.00;99.90
58951;DHT22;44730;53.158;6.398;2023-02-27T11:33:50;7.00;99.90
58951;DHT22;44730;53.158;6.398;2023-02-27T11:36:18;7.00;99.90
58951;DHT22;44730;53.158;6.398;2023-02-27T11:38:54;7.00;99.90
58951;DHT22;44730;53.158;6.398;2023-02-27T11:41:31;7.10;99.90
58951;DHT22;44730;53.158;6.398;2023-02-27T11:43:58;7.20;99.90
58951;DHT22;44730;53.158;6.398;2023-02-27T11:46:27;7.20;99.90
58951;DHT22;44730;53.158;6.398;2023-02-27T11:56:57;7.50;99.90
58951;DHT22;44730;53.158;6.398;2023-02-27T11:59:29;7.60;99.90
58951;DHT22;44730;53.158;6.398;2023-02-27T12:05:24;7.80;99.90
58951;DHT22;44730;53.158;6.398;2023-02-27T12:08:02;7.70;99.90
58951;DHT22;44730;53.158;6.398;2023-02-27T12:10:38;7.70;99.90
58951;DHT22;44730;53.158;6.398;2023-02-27T12:13:14;7.60;99.90
58951;DHT22;44730;53.158;6.398;2023-02-27T12:16:18;7.70;99.90
58951;DHT22;44730;53.158;6.398;2023-02-27T12:18:58;7.90;99.90
58951;DHT22;44730;53.158;6.398;2023-02-27T12:21:30;7.90;99.90
58951;DHT22;44730;53.158;6.398;2023-02-27T12:26:41;8.40;99.90
58951;DHT22;44730;53.158;6.398;2023-02-27T12:29:33;8.70;99.90
58951;DHT22;44730;53.158;6.398;2023-02-27T12:32:08;8.70;99.90
58951;DHT22;44730;53.158;6.398;2023-02-27T12:34:51;8.60;99.90
58951;DHT22;44730;53.158;6.398;2023-02-27T12:37:24;8.60;99.90
58951;DHT22;44730;53.158;6.398;2023-02-27T12:39:53;8.80;99.90
58951;DHT22;44730;53.158;6.398;2023-02-27T12:50:19;8.60;99.90
58951;DHT22;44730;53.158;6.398;2023-02-27T12:55:42;8.30;99.90
58951;DHT22;44730;53.158;6.398;2023-02-27T12:58:16;8.50;99.90
58951;DHT22;44730;53.158;6.398;2023-02-27T13:00:50;8.80;99.90
58951;DHT22;44730;53.158;6.398;2023-02-27T13:14:25;9.40;99.90
58951;DHT22;44730;53.158;6.398;2023-02-27T13:17:04;9.10;99.90
58951;DHT22;44730;53.158;6.398;2023-02-27T13:19:50;9.10;99.90
58951;DHT22;44730;53.158;6.398;2023-02-27T13:25:12;9.10;99.90
58951;DHT22;44730;53.158;6.398;2023-02-27T13:30:31;9.20;99.90
58951;DHT22;44730;53.158;6.398;2023-02-27T13:38:48;12.20;96.40
58951;DHT22;44730;53.158;6.398;2023-02-27T13:48:53;12.80;93.70
58951;DHT22;44730;53.158;6.398;2023-02-27T14:04:50;12.30;91.60
58951;DHT22;44730;53.158;6.398;2023-02-27T14:07:20;11.80;93.00
58951;DHT22;44730;53.158;6.398;2023-02-27T14:09:50;11.20;93.80
58951;DHT22;44730;53.158;6.398;2023-02-27T14:12:37;10.70;94.00
58951;DHT22;44730;53.158;6.398;2023-02-27T14:15:09;10.10;94.20
58951;DHT22;44730;53.158;6.398;2023-02-27T14:28:48;8.70;97.90
58951;DHT22;44730;53.158;6.398;2023-02-27T14:31:23;8.60;99.00
58951;DHT22;44730;53.158;6.398;2023-02-27T14:33:54;8.50;98.40
58951;DHT22;44730;53.158;6.398;2023-02-27T14:36:25;8.50;99.60
58951;DHT22;44730;53.158;6.398;2023-02-27T14:38:59;8.40;99.40
58951;DHT22;44730;53.158;6.398;2023-02-27T14:41:37;8.40;99.60
58951;DHT22;44730;53.158;6.398;2023-02-27T14:44:17;8.50;99.70
58951;DHT22;44730;53.158;6.398;2023-02-27T14:46:43;8.60;99.20
58951;DHT22;44730;53.158;6.398;2023-02-27T14:49:29;8.50;99.40
58951;DHT22;44730;53.158;6.398;2023-02-27T14:51:57;8.30;99.10
58951;DHT22;44730;53.158;6.398;2023-02-27T14:54:34;8.40;99.90
58951;DHT22;44730;53.158;6.398;2023-02-27T14:57:05;8.30;99.90
58951;DHT22;44730;53.158;6.398;2023-02-27T14:59:43;8.10;99.90
58951;DHT22;44730;53.158;6.398;2023-02-27T15:02:24;8.00;99.90
58951;DHT22;44730;53.158;6.398;2023-02-27T15:07:28;7.90;99.90
58951;DHT22;44730;53.158;6.398;2023-02-27T15:10:03;7.90;99.90
58951;DHT22;44730;53.158;6.398;2023-02-27T15:12:30;7.90;99.90
58951;DHT22;44730;53.158;6.398;2023-02-27T15:14:58;7.80;99.90
58951;DHT22;44730;53.158;6.398;2023-02-27T15:17:39;7.70;99.90
58951;DHT22;44730;53.158;6.398;2023-02-27T15:20:34;7.70;99.90
58951;DHT22;44730;53.158;6.398;2023-02-27T15:23:19;7.70;99.90
58951;DHT22;44730;53.158;6.398;2023-02-27T15:25:46;7.70;99.90
58951;DHT22;44730;53.158;6.398;2023-02-27T15:28:22;7.70;99.90
58951;DHT22;44730;53.158;6.398;2023-02-27T15:30:53;7.70;99.90
58951;DHT22;44730;53.158;6.398;2023-02-27T15:33:26;7.70;99.90
58951;DHT22;44730;53.158;6.398;2023-02-27T15:35:53;7.70;99.90
58951;DHT22;44730;53.158;6.398;2023-02-27T15:40:49;7.70;99.90
58951;DHT22;44730;53.158;6.398;2023-02-27T15:43:14;7.70;99.90
58951;DHT22;44730;53.158;6.398;2023-02-27T15:45:40;7.60;99.90
58951;DHT22;44730;53.158;6.398;2023-02-27T15:48:12;7.50;99.90
58951;DHT22;44730;53.158;6.398;2023-02-27T15:50:42;7.30;99.90
58951;DHT22;44730;53.158;6.398;2023-02-27T15:53:12;7.20;99.90
58951;DHT22;44730;53.158;6.398;2023-02-27T15:55:43;7.30;99.90
58951;DHT22;44730;53.158;6.398;2023-02-27T15:58:29;7.20;99.90
58951;DHT22;44730;53.158;6.398;2023-02-27T16:00:59;7.10;99.90
58951;DHT22;44730;53.158;6.398;2023-02-27T16:03:39;7.00;99.90
58951;DHT22;44730;53.158;6.398;2023-02-27T16:06:27;7.00;99.90
58951;DHT22;44730;53.158;6.398;2023-02-27T16:09:04;6.90;99.90
58951;DHT22;44730;53.158;6.398;2023-02-27T16:11:35;6.90;99.90
58951;DHT22;44730;53.158;6.398;2023-02-27T16:14:03;6.80;99.90
58951;DHT22;44730;53.158;6.398;2023-02-27T16:19:46;6.60;99.90
58951;DHT22;44730;53.158;6.398;2023-02-27T16:24:32;6.50;99.90
58951;DHT22;44730;53.158;6.398;2023-02-27T16:27:01;6.40;99.90
58951;DHT22;44730;53.158;6.398;2023-02-27T16:29:34;6.30;99.90
58951;DHT22;44730;53.158;6.398;2023-02-27T16:32:01;6.40;99.90
58951;DHT22;44730;53.158;6.398;2023-02-27T16:34:39;6.40;99.90
58951;DHT22;44730;53.158;6.398;2023-02-27T16:37:29;6.30;99.90
58951;DHT22;44730;53.158;6.398;2023-02-27T16:39:56;6.20;99.90
58951;DHT22;44730;53.158;6.398;2023-02-27T16:42:28;6.20;99.90
58951;DHT22;44730;53.158;6.398;2023-02-27T16:44:53;6.10;99.90
58951;DHT22;44730;53.158;6.398;2023-02-27T16:47:21;6.10;99.90
58951;DHT22;44730;53.158;6.398;2023-02-27T16:49:47;6.00;99.90
58951;DHT22;44730;53.158;6.398;2023-02-27T16:52:14;6.00;99.90
58951;DHT22;44730;53.158;6.398;2023-02-27T16:54:39;5.90;99.90
58951;DHT22;44730;53.158;6.398;2023-02-27T16:57:05;5.90;99.90
58951;DHT22;44730;53.158;6.398;2023-02-27T16:59:33;5.80;99.90
58951;DHT22;44730;53.158;6.398;2023-02-27T17:02:02;5.80;99.90
58951;DHT22;44730;53.158;6.398;2023-02-27T17:04:28;5.70;99.90
58951;DHT22;44730;53.158;6.398;2023-02-27T17:06:56;5.60;99.90
58951;DHT22;44730;53.158;6.398;2023-02-27T17:09:22;5.60;99.90
58951;DHT22;44730;53.158;6.398;2023-02-27T17:11:49;5.50;99.90
58951;DHT22;44730;53.158;6.398;2023-02-27T17:14:14;5.40;99.90
58951;DHT22;44730;53.158;6.398;2023-02-27T17:16:40;5.40;99.90
58951;DHT22;44730;53.158;6.398;2023-02-27T17:19:06;5.30;99.90
58951;DHT22;44730;53.158;6.398;2023-02-27T17:21:33;5.60;99.90
58951;DHT22;44730;53.158;6.398;2023-02-27T17:23:59;5.20;99.90
58951;DHT22;44730;53.158;6.398;2023-02-27T17:26:25;5.10;99.90
58951;DHT22;44730;53.158;6.398;2023-02-27T17:28:52;5.10;99.90
58951;DHT22;44730;53.158;6.398;2023-02-27T17:31:18;5.00;99.90
58951;DHT22;44730;53.158;6.398;2023-02-27T17:33:52;4.90;99.90
58951;DHT22;44730;53.158;6.398;2023-02-27T17:36:21;4.90;99.90
58951;DHT22;44730;53.158;6.398;2023-02-27T17:38:47;4.90;99.90
58951;DHT22;44730;53.158;6.398;2023-02-27T17:41:17;4.80;99.90
58951;DHT22;44730;53.158;6.398;2023-02-27T17:43:43;4.70;99.90
58951;DHT22;44730;53.158;6.398;2023-02-27T17:46:13;4.70;99.90
58951;DHT22;44730;53.158;6.398;2023-02-27T17:48:39;4.70;99.90
58951;DHT22;44730;53.158;6.398;2023-02-27T17:51:07;4.50;99.90
58951;DHT22;44730;53.158;6.398;2023-02-27T17:53:34;4.50;99.90
58951;DHT22;44730;53.158;6.398;2023-02-27T17:56:00;4.40;99.90
58951;DHT22;44730;53.158;6.398;2023-02-27T17:58:26;4.50;99.90
58951;DHT22;44730;53.158;6.398;2023-02-27T18:00:51;4.30;99.90
58951;DHT22;44730;53.158;6.398;2023-02-27T18:03:17;4.20;99.90
58951;DHT22;44730;53.158;6.398;2023-02-27T18:05:49;4.20;99.90
58951;DHT22;44730;53.158;6.398;2023-02-27T18:08:15;4.10;99.90
58951;DHT22;44730;53.158;6.398;2023-02-27T18:10:50;4.20;99.90
58951;DHT22;44730;53.158;6.398;2023-02-27T18:13:17;4.10;99.90
58951;DHT22;44730;53.158;6.398;2023-02-27T18:15:44;4.00;99.90
58951;DHT22;44730;53.158;6.398;2023-02-27T18:18:10;4.00;99.90
58951;DHT22;44730;53.158;6.398;2023-02-27T18:20:38;4.20;99.90
58951;DHT22;44730;53.158;6.398;2023-02-27T18:23:06;4.00;99.90
58951;DHT22;44730;53.158;6.398;2023-02-27T18:25:34;3.90;99.90
58951;DHT22;44730;53.158;6.398;2023-02-27T18:27:59;3.90;99.90
58951;DHT22;44730;53.158;6.398;2023-02-27T18:30:27;3.90;99.90
58951;DHT22;44730;53.158;6.398;2023-02-27T18:32:57;3.80;99.90
58951;DHT22;44730;53.158;6.398;2023-02-27T18:35:23;3.70;99.90
58951;DHT22;44730;53.158;6.398;2023-02-27T18:37:50;3.70;99.90
58951;DHT22;44730;53.158;6.398;2023-02-27T18:40:16;3.70;99.90
58951;DHT22;44730;53.158;6.398;2023-02-27T18:42:43;3.60;99.90
58951;DHT22;44730;53.158;6.398;2023-02-27T18:45:12;3.40;99.90
58951;DHT22;44730;53.158;6.398;2023-02-27T18:47:38;3.40;99.90
58951;DHT22;44730;53.158;6.398;2023-02-27T18:50:03;3.30;99.90
58951;DHT22;44730;53.158;6.398;2023-02-27T18:52:29;3.20;99.90
58951;DHT22;44730;53.158;6.398;2023-02-27T18:54:56;3.10;99.90
58951;DHT22;44730;53.158;6.398;2023-02-27T18:57:22;3.10;99.90
58951;DHT22;44730;53.158;6.398;2023-02-27T18:59:47;3.00;99.90
58951;DHT22;44730;53.158;6.398;2023-02-27T19:02:15;3.10;99.90
58951;DHT22;44730;53.158;6.398;2023-02-27T19:04:41;2.90;99.90
58951;DHT22;44730;53.158;6.398;2023-02-27T19:07:14;2.70;99.90
58951;DHT22;44730;53.158;6.398;2023-02-27T19:09:41;2.70;99.90